createdAt,value
2022-11-15T00:00:30.404Z,4.63
2022-11-15T00:03:18.834Z,4.47
2022-11-15T00:06:09.813Z,4.72
2022-11-15T00:09:00.366Z,6.55
2022-11-15T00:16:51.512Z,4.88
2022-11-15T00:19:40.222Z,5.22
2022-11-15T00:22:34.651Z,5.20
2022-11-15T00:25:23.397Z,5.40
2022-11-15T00:28:10.838Z,5.03
2022-11-15T00:31:03.923Z,4.50
2022-11-15T00:33:51.577Z,5.40
2022-11-15T00:36:48.336Z,4.70
2022-11-15T00:39:35.534Z,5.25
2022-11-15T00:42:24.331Z,5.07
2022-11-15T00:45:12.335Z,4.63
2022-11-15T00:47:59.997Z,4.55
2022-11-15T00:50:47.248Z,4.93
2022-11-15T00:53:34.890Z,5.40
2022-11-15T00:56:22.598Z,5.07
2022-11-15T00:59:11.128Z,5.00
2022-11-15T01:01:58.530Z,4.82
2022-11-15T01:04:46.312Z,4.57
2022-11-15T01:07:34.116Z,4.97
2022-11-15T01:10:21.748Z,4.25
2022-11-15T01:13:09.754Z,4.90
2022-11-15T01:16:01.747Z,4.82
2022-11-15T01:18:49.373Z,4.70
2022-11-15T01:21:36.877Z,4.68
2022-11-15T01:24:24.252Z,4.60
2022-11-15T01:27:12.045Z,5.20
2022-11-15T01:29:59.639Z,4.75
2022-11-15T01:32:48.406Z,4.43
2022-11-15T01:35:40.603Z,5.80
2022-11-15T01:38:28.024Z,4.53
2022-11-15T01:41:22.149Z,4.85
2022-11-15T01:44:42.553Z,4.18
2022-11-15T01:47:35.412Z,4.20
2022-11-15T01:50:30.524Z,5.47
2022-11-15T01:53:19.466Z,4.82
2022-11-15T01:56:11.478Z,4.43
2022-11-15T01:59:03.396Z,4.95
2022-11-15T02:01:51.772Z,4.70
2022-11-15T02:04:44.129Z,4.60
2022-11-15T02:07:36.200Z,5.13
2022-11-15T02:10:26.868Z,5.15
2022-11-15T02:13:15.382Z,4.85
2022-11-15T02:16:13.909Z,4.60
2022-11-15T02:19:15.973Z,4.00
2022-11-15T02:22:24.068Z,4.80
2022-11-15T02:25:40.514Z,4.95
2022-11-15T02:28:51.410Z,4.53
2022-11-15T02:31:50.491Z,4.60
2022-11-15T02:34:52.750Z,4.82
2022-11-15T02:38:05.175Z,4.72
2022-11-15T02:41:02.280Z,4.50
2022-11-15T02:43:57.616Z,4.68
2022-11-15T02:47:09.526Z,4.72
2022-11-15T02:50:05.192Z,4.50
2022-11-15T02:53:02.215Z,4.80
2022-11-15T02:55:53.211Z,4.45
2022-11-15T02:59:07.665Z,4.05
2022-11-15T03:02:20.817Z,4.35
2022-11-15T03:05:26.062Z,4.20
2022-11-15T03:08:28.268Z,4.50
2022-11-15T03:11:19.753Z,4.50
2022-11-15T03:14:23.507Z,4.10
2022-11-15T03:17:21.356Z,4.68
2022-11-15T03:20:14.510Z,4.45
2022-11-15T03:25:56.998Z,4.68
2022-11-15T03:28:52.233Z,4.28
2022-11-15T03:31:50.879Z,4.32
2022-11-15T03:34:47.184Z,4.32
2022-11-15T03:37:41.907Z,4.20
2022-11-15T03:40:39.022Z,5.13
2022-11-15T03:43:38.283Z,4.80
2022-11-15T03:46:33.779Z,4.40
2022-11-15T03:49:30.554Z,4.45
2022-11-15T03:52:23.039Z,4.70
2022-11-15T03:55:17.035Z,4.65
2022-11-15T03:58:04.750Z,4.68
2022-11-15T04:00:52.177Z,4.40
2022-11-15T04:03:39.661Z,4.18
2022-11-15T04:06:27.061Z,4.18
2022-11-15T04:09:15.936Z,4.47
2022-11-15T04:12:03.571Z,5.47
2022-11-15T04:15:08.125Z,4.38
2022-11-15T04:17:58.808Z,4.72
2022-11-15T04:21:03.874Z,4.30
2022-11-15T04:24:08.884Z,4.60
2022-11-15T04:26:57.438Z,4.60
2022-11-15T04:29:44.732Z,4.63
2022-11-15T04:32:32.087Z,5.35
2022-11-15T04:35:19.643Z,4.32
2022-11-15T04:38:10.308Z,4.63
2022-11-15T04:40:58.097Z,4.70
2022-11-15T04:43:47.366Z,4.82
2022-11-15T04:46:35.025Z,5.78
2022-11-15T04:49:22.672Z,4.20
2022-11-15T04:52:10.044Z,4.63
2022-11-15T04:54:57.505Z,4.40
2022-11-15T04:57:45.175Z,4.70
2022-11-15T05:00:33.866Z,4.50
2022-11-15T05:03:38.820Z,5.03
2022-11-15T05:06:26.308Z,4.68
2022-11-15T05:09:14.974Z,4.40
2022-11-15T05:12:02.457Z,4.85
2022-11-15T05:14:49.950Z,5.40
2022-11-15T05:17:38.747Z,4.68
2022-11-15T05:20:26.180Z,5.32
2022-11-15T05:23:13.680Z,4.85
2022-11-15T05:26:06.398Z,4.80
2022-11-15T05:28:58.790Z,4.60
2022-11-15T05:31:46.353Z,4.95
2022-11-15T05:34:35.087Z,4.78
2022-11-15T05:37:22.863Z,4.75
2022-11-15T05:40:11.254Z,4.88
2022-11-15T05:43:02.242Z,4.57
2022-11-15T05:45:49.885Z,4.45
2022-11-15T05:48:43.342Z,4.95
2022-11-15T05:51:32.463Z,4.38
2022-11-15T05:54:23.167Z,4.63
2022-11-15T05:57:10.828Z,4.88
2022-11-15T05:59:58.670Z,4.75
2022-11-15T06:02:46.248Z,4.75
2022-11-15T06:05:33.559Z,5.00
2022-11-15T06:08:22.342Z,4.80
2022-11-15T06:11:10.177Z,5.07
2022-11-15T06:13:58.849Z,5.05
2022-11-15T06:16:46.574Z,5.70
2022-11-15T06:19:34.468Z,4.22
2022-11-15T06:22:22.972Z,4.50
2022-11-15T06:25:12.082Z,5.28
2022-11-15T06:28:01.420Z,5.20
2022-11-15T06:30:53.057Z,4.28
2022-11-15T06:33:41.395Z,4.88
2022-11-15T06:36:28.906Z,4.65
2022-11-15T06:39:16.342Z,5.45
2022-11-15T06:42:05.312Z,4.57
2022-11-15T06:44:52.880Z,5.20
2022-11-15T06:47:47.771Z,4.85
2022-11-15T06:50:35.553Z,5.30
2022-11-15T06:53:23.255Z,5.97
2022-11-15T06:56:11.149Z,4.82
2022-11-15T06:59:00.159Z,5.35
2022-11-15T07:01:47.864Z,4.95
2022-11-15T07:04:37.350Z,4.68
2022-11-15T07:07:24.989Z,5.55
2022-11-15T07:10:12.673Z,5.22
2022-11-15T07:13:00.372Z,4.80
2022-11-15T07:15:49.239Z,5.53
2022-11-15T07:18:38.564Z,6.95
2022-11-15T07:21:27.818Z,4.80
2022-11-15T07:24:15.444Z,5.68
2022-11-15T07:27:02.942Z,5.55
2022-11-15T07:29:50.644Z,9.05
2022-11-15T07:32:39.481Z,6.85
2022-11-15T07:35:29.357Z,10.50
2022-11-15T07:38:20.457Z,12.70
2022-11-15T07:41:08.922Z,13.90
2022-11-15T07:43:56.453Z,11.32
2022-11-15T07:46:44.075Z,10.73
2022-11-15T07:49:32.964Z,9.30
2022-11-15T07:52:20.662Z,8.82
2022-11-15T07:55:09.834Z,7.45
2022-11-15T07:58:03.776Z,8.05
2022-11-15T08:00:51.424Z,7.07
2022-11-15T08:03:39.726Z,9.85
2022-11-15T08:06:28.439Z,8.02
2022-11-15T08:09:16.135Z,8.40
2022-11-15T08:12:03.617Z,8.18
2022-11-15T08:14:51.392Z,8.55
2022-11-15T08:17:38.932Z,9.02
2022-11-15T08:20:30.576Z,8.82
2022-11-15T08:23:19.761Z,8.52
2022-11-15T08:26:07.396Z,8.55
2022-11-15T08:28:55.150Z,9.07
2022-11-15T08:31:42.628Z,9.40
2022-11-15T08:34:30.374Z,9.35
2022-11-15T08:37:17.816Z,9.55
2022-11-15T08:40:08.700Z,9.43
2022-11-15T08:42:56.047Z,9.55
2022-11-15T08:45:43.518Z,9.52
2022-11-15T08:48:32.367Z,9.65
2022-11-15T08:51:21.095Z,9.25
2022-11-15T08:54:08.926Z,9.27
2022-11-15T08:56:57.843Z,9.20
2022-11-15T08:59:45.655Z,9.48
2022-11-15T09:02:33.588Z,9.98
2022-11-15T09:05:20.901Z,9.07
2022-11-15T09:08:25.670Z,10.45
2022-11-15T09:11:17.359Z,9.35
2022-11-15T09:14:06.340Z,9.23
2022-11-15T09:16:53.964Z,9.60
2022-11-15T09:19:41.373Z,9.38
2022-11-15T09:22:29.565Z,9.32
2022-11-15T09:25:17.123Z,8.55
2022-11-15T09:28:08.723Z,9.70
2022-11-15T09:31:00.847Z,8.38
2022-11-15T09:33:48.842Z,8.33
2022-11-15T09:36:37.114Z,8.10
2022-11-15T09:39:24.537Z,8.75
2022-11-15T09:42:47.803Z,8.60
2022-11-15T09:45:49.482Z,10.35
2022-11-15T09:48:54.601Z,8.48
2022-11-15T09:51:48.550Z,8.43
2022-11-15T09:54:53.513Z,8.60
2022-11-15T09:57:55.858Z,8.38
2022-11-15T10:00:53.212Z,8.45
2022-11-15T10:03:46.537Z,7.32
2022-11-15T10:06:39.276Z,7.75
2022-11-15T10:09:35.144Z,7.68
2022-11-15T10:12:23.042Z,7.40
2022-11-15T10:15:20.307Z,7.10
2022-11-15T10:18:17.045Z,6.75
2022-11-15T10:21:21.676Z,6.88
2022-11-15T10:24:14.619Z,6.78
2022-11-15T10:29:52.489Z,6.97
2022-11-15T10:32:42.790Z,6.70
2022-11-15T10:35:32.468Z,5.97
2022-11-15T10:38:21.534Z,6.47
2022-11-15T10:41:10.310Z,6.30
2022-11-15T10:44:23.336Z,7.03
2022-11-15T10:50:33.092Z,5.72
2022-11-15T10:53:39.510Z,6.18
2022-11-15T10:56:28.807Z,5.90
2022-11-15T10:59:28.509Z,5.90
2022-11-15T11:02:59.768Z,5.70
2022-11-15T11:05:47.304Z,7.90
2022-11-15T11:08:36.570Z,5.80
2022-11-15T11:11:24.990Z,6.43
2022-11-15T11:14:15.300Z,6.93
2022-11-15T11:17:13.282Z,7.03
2022-11-15T11:20:12.493Z,6.50
2022-11-15T11:23:18.917Z,4.97
2022-11-15T11:26:28.085Z,6.25
2022-11-15T11:29:35.624Z,5.78
2022-11-15T11:32:55.546Z,5.70
2022-11-15T11:35:57.408Z,5.18
2022-11-15T11:39:08.113Z,5.75
2022-11-15T11:42:11.667Z,6.30
2022-11-15T11:45:20.615Z,6.35
2022-11-15T11:48:16.078Z,5.85
2022-11-15T11:51:14.397Z,6.32
2022-11-15T11:54:13.194Z,5.00
2022-11-15T11:57:07.637Z,5.88
2022-11-15T12:00:05.409Z,4.97
2022-11-15T12:03:09.930Z,5.57
2022-11-15T12:06:03.365Z,7.20
2022-11-15T12:09:04.229Z,6.22
2022-11-15T12:12:01.309Z,4.95
2022-11-15T12:14:57.702Z,5.60
2022-11-15T12:17:46.638Z,5.30
2022-11-15T12:20:41.305Z,5.45
2022-11-15T12:23:33.768Z,5.88
2022-11-15T12:26:25.864Z,5.68
2022-11-15T12:29:18.694Z,5.75
2022-11-15T12:32:18.156Z,5.28
2022-11-15T12:35:22.328Z,5.13
2022-11-15T12:38:13.516Z,5.32
2022-11-15T12:41:17.932Z,5.55
2022-11-15T12:44:12.155Z,5.55
2022-11-15T12:47:25.689Z,7.13
2022-11-15T12:50:15.817Z,6.32
2022-11-15T12:53:32.502Z,7.78
2022-11-15T12:56:25.272Z,3.75
2022-11-15T13:02:02.497Z,3.60
2022-11-15T13:04:51.907Z,4.75
2022-11-15T13:07:58.840Z,5.47
2022-11-15T13:10:47.035Z,5.63
2022-11-15T13:13:45.755Z,5.18
2022-11-15T13:16:33.772Z,5.72
2022-11-15T13:19:25.176Z,5.05
2022-11-15T13:22:32.318Z,5.88
2022-11-15T13:25:30.001Z,4.53
2022-11-15T13:28:33.370Z,3.88
2022-11-15T13:31:32.316Z,4.38
2022-11-15T13:34:50.553Z,5.45
2022-11-15T13:37:37.554Z,4.28
2022-11-15T13:40:31.473Z,3.58
2022-11-15T13:43:31.730Z,7.43
2022-11-15T13:46:21.528Z,3.60
2022-11-15T13:49:13.010Z,4.22
2022-11-15T13:52:03.310Z,5.13
2022-11-15T13:54:59.553Z,4.40
2022-11-15T13:57:49.313Z,4.22
2022-11-15T14:00:41.104Z,4.97
2022-11-15T14:03:30.614Z,3.67
2022-11-15T14:06:21.769Z,4.82
2022-11-15T14:09:35.366Z,4.53
2022-11-15T14:12:31.252Z,4.32
2022-11-15T14:15:30.532Z,5.32
2022-11-15T14:18:43.603Z,6.80
2022-11-15T14:21:32.021Z,4.93
2022-11-15T14:24:21.178Z,5.15
2022-11-15T14:27:30.425Z,4.05
2022-11-15T14:30:18.988Z,5.47
2022-11-15T14:33:23.659Z,4.43
2022-11-15T14:36:15.726Z,4.35
2022-11-15T14:39:06.180Z,4.22
2022-11-15T14:41:54.028Z,4.10
2022-11-15T14:44:46.174Z,4.00
2022-11-15T14:47:34.126Z,5.22
2022-11-15T14:50:23.636Z,4.93
2022-11-15T14:53:15.557Z,5.00
2022-11-15T14:56:03.120Z,5.18
2022-11-15T14:58:51.192Z,4.93
2022-11-15T15:01:40.620Z,3.97
2022-11-15T15:04:28.575Z,4.00
2022-11-15T15:07:16.675Z,3.85
2022-11-15T15:10:37.557Z,3.72
2022-11-15T15:13:19.638Z,3.53
2022-11-15T15:16:07.756Z,4.13
2022-11-15T15:18:56.973Z,4.30
2022-11-15T15:21:44.688Z,3.97
2022-11-15T15:24:32.767Z,3.53
2022-11-15T15:27:20.635Z,3.97
2022-11-15T15:30:09.819Z,3.47
2022-11-15T15:32:58.196Z,3.63
2022-11-15T15:35:47.242Z,4.13
2022-11-15T15:38:35.655Z,4.55
2022-11-15T15:41:23.786Z,5.43
2022-11-15T15:44:11.862Z,7.78
2022-11-15T15:47:00.220Z,8.40
2022-11-15T15:49:48.682Z,7.22
2022-11-15T15:52:37.893Z,4.78
2022-11-15T15:55:26.371Z,4.10
2022-11-15T15:58:14.187Z,3.90
2022-11-15T16:01:02.493Z,4.03
2022-11-15T16:03:50.642Z,4.75
2022-11-15T16:06:43.155Z,4.63
2022-11-15T16:09:50.046Z,4.93
2022-11-15T16:12:37.909Z,4.18
2022-11-15T16:15:27.048Z,4.35
2022-11-15T16:18:20.640Z,4.47
2022-11-15T16:21:09.607Z,4.60
2022-11-15T16:23:57.548Z,4.70
2022-11-15T16:26:47.419Z,5.03
2022-11-15T16:29:35.039Z,5.43
2022-11-15T16:32:23.887Z,5.28
2022-11-15T16:35:14.374Z,6.38
2022-11-15T16:38:02.461Z,7.20
2022-11-15T16:40:50.603Z,5.82
2022-11-15T16:43:39.539Z,4.82
2022-11-15T16:46:29.187Z,4.78
2022-11-15T16:49:17.329Z,4.90
2022-11-15T16:52:05.253Z,4.90
2022-11-15T16:54:54.024Z,4.80
2022-11-15T16:57:41.919Z,4.60
2022-11-15T17:00:31.335Z,4.35
2022-11-15T17:03:19.558Z,4.78
2022-11-15T17:06:09.560Z,4.60
2022-11-15T17:08:57.385Z,4.57
2022-11-15T17:11:45.477Z,5.57
2022-11-15T17:14:33.525Z,6.85
2022-11-15T17:17:22.799Z,5.85
2022-11-15T17:20:17.267Z,4.90
2022-11-15T17:23:12.123Z,5.82
2022-11-15T17:26:17.873Z,5.70
2022-11-15T17:29:08.881Z,4.85
2022-11-15T17:31:56.567Z,5.43
2022-11-15T17:34:45.741Z,5.60
2022-11-15T17:37:33.777Z,5.35
2022-11-15T17:40:21.703Z,6.85
2022-11-15T17:43:09.731Z,6.47
2022-11-15T17:45:57.794Z,5.32
2022-11-15T17:48:45.829Z,5.80
2022-11-15T17:51:35.185Z,5.63
2022-11-15T17:54:22.930Z,6.75
2022-11-15T17:57:11.275Z,6.90
2022-11-15T17:59:59.120Z,7.18
2022-11-15T18:02:46.908Z,7.40
2022-11-15T18:05:34.764Z,6.88
2022-11-15T18:08:24.275Z,11.65
2022-11-15T18:11:14.380Z,10.23
2022-11-15T18:14:04.379Z,8.60
2022-11-15T18:16:52.177Z,8.25
2022-11-15T18:19:40.596Z,7.50
2022-11-15T18:22:28.655Z,7.45
2022-11-15T18:25:18.359Z,6.95
2022-11-15T18:28:06.165Z,6.75
2022-11-15T18:30:53.811Z,7.22
2022-11-15T18:33:42.875Z,7.18
2022-11-15T18:36:32.183Z,7.40
2022-11-15T18:39:20.383Z,6.93
2022-11-15T18:42:09.532Z,7.10
2022-11-15T18:44:57.313Z,6.97
2022-11-15T18:47:45.416Z,6.22
2022-11-15T18:50:33.496Z,7.28
2022-11-15T18:53:21.359Z,6.20
2022-11-15T18:56:12.096Z,6.68
2022-11-15T18:59:03.111Z,5.88
2022-11-15T19:01:52.124Z,6.13
2022-11-15T19:04:40.190Z,6.45
2022-11-15T19:07:28.158Z,6.30
2022-11-15T19:10:16.391Z,6.07
2022-11-15T19:13:04.101Z,6.07
2022-11-15T19:16:00.559Z,6.28
2022-11-15T19:18:48.945Z,6.15
2022-11-15T19:21:36.928Z,6.65
2022-11-15T19:24:26.329Z,6.88
2022-11-15T19:27:14.146Z,5.93
2022-11-15T19:30:02.026Z,5.20
2022-11-15T19:32:51.255Z,5.82
2022-11-15T19:35:39.288Z,6.57
2022-11-15T19:38:27.462Z,6.10
2022-11-15T19:41:17.381Z,5.70
2022-11-15T19:44:05.590Z,6.18
2022-11-15T19:46:53.469Z,5.22
2022-11-15T19:49:43.579Z,6.30
2022-11-15T19:52:31.455Z,6.25
2022-11-15T19:55:19.300Z,6.78
2022-11-15T19:58:06.965Z,6.38
2022-11-15T20:01:00.623Z,9.27
2022-11-15T20:03:50.191Z,6.32
2022-11-15T20:06:41.808Z,6.35
2022-11-15T20:09:29.852Z,6.32
2022-11-15T20:12:17.579Z,6.35
2022-11-15T20:15:06.174Z,7.43
2022-11-15T20:17:53.947Z,6.72
2022-11-15T20:20:41.966Z,6.57
2022-11-15T20:23:32.120Z,6.78
2022-11-15T20:26:23.530Z,7.85
2022-11-15T20:29:11.597Z,6.85
2022-11-15T20:31:59.255Z,7.53
2022-11-15T20:34:52.897Z,7.93
2022-11-15T20:37:41.852Z,9.18
2022-11-15T20:40:31.354Z,8.55
2022-11-15T20:43:21.533Z,8.10
2022-11-15T20:46:09.352Z,9.40
2022-11-15T20:48:57.081Z,7.80
2022-11-15T20:51:45.385Z,7.38
2022-11-15T20:54:33.410Z,7.25
2022-11-15T20:57:22.818Z,7.20
2022-11-15T21:00:12.208Z,6.72
2022-11-15T21:02:59.823Z,7.00
2022-11-15T21:05:48.461Z,7.90
2022-11-15T21:08:50.295Z,7.70
2022-11-15T21:11:56.132Z,7.50
2022-11-15T21:14:48.127Z,7.85
2022-11-15T21:17:36.247Z,7.05
2022-11-15T21:20:25.319Z,7.38
2022-11-15T21:23:14.398Z,7.30
2022-11-15T21:26:02.304Z,9.57
2022-11-15T21:28:50.949Z,7.95
2022-11-15T21:31:40.439Z,7.70
2022-11-15T21:34:28.576Z,7.75
2022-11-15T21:37:16.429Z,8.05
2022-11-15T21:40:04.919Z,8.32
2022-11-15T21:42:53.161Z,7.60
2022-11-15T21:45:42.949Z,7.40
2022-11-15T21:48:34.113Z,8.02
2022-11-15T21:51:22.106Z,7.40
2022-11-15T21:54:10.462Z,8.20
2022-11-15T21:56:58.601Z,7.85
2022-11-15T22:00:04.173Z,8.02
2022-11-15T22:02:52.286Z,7.97
2022-11-15T22:05:44.794Z,7.30
2022-11-15T22:08:33.141Z,7.63
2022-11-15T22:11:21.868Z,7.85
2022-11-15T22:14:09.945Z,7.70
2022-11-15T22:16:58.359Z,8.15
2022-11-15T22:19:52.520Z,8.13
2022-11-15T22:22:42.799Z,7.82
2022-11-15T22:25:30.646Z,7.75
2022-11-15T22:28:20.358Z,7.07
2022-11-15T22:31:08.561Z,7.85
2022-11-15T22:33:56.576Z,7.32
2022-11-15T22:37:13.009Z,8.02
2022-11-15T22:39:54.978Z,7.88
2022-11-15T22:42:43.198Z,7.78
2022-11-15T22:45:31.401Z,7.30
2022-11-15T22:48:20.379Z,9.00
2022-11-15T22:51:09.286Z,7.82
2022-11-15T22:53:57.026Z,8.57
2022-11-15T22:56:46.583Z,8.00
2022-11-15T22:59:35.845Z,7.85
2022-11-15T23:02:24.340Z,8.13
2022-11-15T23:05:12.431Z,7.97
2022-11-15T23:08:00.456Z,7.60
2022-11-15T23:11:05.680Z,6.93
2022-11-15T23:13:54.913Z,7.25
2022-11-15T23:16:43.158Z,7.10
2022-11-15T23:19:31.278Z,6.80
2022-11-15T23:22:36.586Z,6.28
2022-11-15T23:25:24.346Z,6.45
2022-11-15T23:28:12.343Z,6.82
2022-11-15T23:31:24.346Z,6.47
2022-11-15T23:34:12.841Z,6.68
2022-11-15T23:37:01.186Z,6.82
2022-11-15T23:39:49.050Z,6.40
2022-11-15T23:42:37.195Z,6.57
2022-11-15T23:45:24.980Z,6.90
2022-11-15T23:48:14.163Z,6.70
2022-11-15T23:51:02.554Z,6.60
2022-11-15T23:53:50.570Z,6.57
2022-11-15T23:56:38.540Z,6.30
2022-11-15T23:59:26.802Z,6.32
